Time;durP1;ratioP1;P1;durP2;ratioP2;P2;SDS_P1;SDS_P2;PMS_P1;PMS_P2;Temp;Humidity;BMP_temperature;BMP_pressure;BME280_temperature;BME280_humidity;BME280_pressure;Samples;Min_cycle;Max_cycle;Signal;HPM_P1;HPM_P2
2021/11/03 00:01:06;;;;;;;0.68;0.28;;;26.70;81.20;;;;;;5078961;28;20024;-74
2021/11/03 00:03:36;;;;;;;3.83;0.20;;;27.10;78.70;;;;;;5076423;28;20391;-74
2021/11/03 00:06:03;;;;;;;0.85;0.22;;;27.30;75.90;;;;;;5082903;28;20037;-72
2021/11/03 00:08:32;;;;;;;2.45;0.30;;;27.00;76.80;;;;;;5076611;28;20024;-73
2021/11/03 00:11:00;;;;;;;1.35;0.20;;;27.30;75.90;;;;;;5087924;28;20320;-73
2021/11/03 00:13:29;;;;;;;1.05;0.30;;;27.50;75.20;;;;;;5095102;28;20032;-70
2021/11/03 00:15:57;;;;;;;1.95;0.20;;;27.50;75.70;;;;;;5087277;28;20035;-69
2021/11/03 00:18:25;;;;;;;0.47;0.10;;;27.30;74.50;;;;;;5074841;28;20487;-71
2021/11/03 00:20:55;;;;;;;1.67;0.57;;;27.30;74.40;;;;;;5086049;28;20482;-70
2021/11/03 00:23:22;;;;;;;1.08;0.30;;;27.60;75.40;;;;;;5083821;28;20566;-69
2021/11/03 00:25:50;;;;;;;0.13;0.10;;;27.90;73.10;;;;;;5084507;28;20542;-70
2021/11/03 00:28:20;;;;;;;1.88;0.30;;;28.00;72.60;;;;;;5066199;28;20474;-72
2021/11/03 00:30:51;;;;;;;0.90;0.30;;;27.80;71.80;;;;;;5086197;28;20111;-76
2021/11/03 00:33:23;;;;;;;0.70;0.10;;;27.50;70.70;;;;;;5086702;28;20558;-73
2021/11/03 00:35:50;;;;;;;2.03;0.35;;;27.20;71.60;;;;;;5082732;28;20028;-75
2021/11/03 00:38:19;;;;;;;1.75;0.35;;;27.30;70.60;;;;;;5087384;28;20367;-76
2021/11/03 00:40:46;;;;;;;2.75;0.30;;;27.50;71.70;;;;;;5078479;28;20021;-75
2021/11/03 00:43:14;;;;;;;1.02;0.20;;;27.90;70.50;;;;;;5079440;28;20028;-73
2021/11/03 00:45:41;;;;;;;0.52;0.20;;;28.20;68.70;;;;;;5077051;28;20028;-73
2021/11/03 00:48:09;;;;;;;2.67;0.40;;;28.20;68.60;;;;;;5090349;28;20035;-75
2021/11/03 00:50:37;;;;;;;3.22;0.30;;;28.10;68.00;;;;;;5077452;28;20102;-71
2021/11/03 00:53:06;;;;;;;2.60;0.20;;;28.00;67.60;;;;;;5084172;28;20036;-71
2021/11/03 00:55:34;;;;;;;4.80;1.08;;;28.00;67.50;;;;;;5084116;28;20059;-77
2021/11/03 00:58:01;;;;;;;3.30;1.00;;;28.50;69.30;;;;;;5088656;28;20035;-72
2021/11/03 01:00:29;;;;;;;2.50;0.30;;;29.30;67.70;;;;;;5076045;28;20036;-75
2021/11/03 01:02:56;;;;;;;3.60;0.47;;;29.60;66.10;;;;;;5077787;28;20083;-75
2021/11/03 01:05:26;;;;;;;1.17;0.20;;;29.10;64.90;;;;;;5094613;28;20905;-74
2021/11/03 01:07:53;;;;;;;1.17;0.22;;;28.50;65.60;;;;;;5083883;28;20022;-76
2021/11/03 01:10:26;;;;;;;1.70;0.68;;;28.60;66.80;;;;;;5084328;28;20028;-76
2021/11/03 01:12:54;;;;;;;0.85;0.57;;;28.60;65.60;;;;;;5092339;28;20020;-72
2021/11/03 01:15:24;;;;;;;1.88;0.22;;;28.30;66.40;;;;;;5088517;28;20437;-74
2021/11/03 01:17:55;;;;;;;1.58;0.35;;;28.60;65.10;;;;;;5080939;28;20024;-72
2021/11/03 01:20:25;;;;;;;3.40;0.40;;;28.50;65.50;;;;;;5080348;28;20065;-73
2021/11/03 01:22:54;;;;;;;1.85;0.85;;;28.20;65.10;;;;;;5083567;28;20032;-72
2021/11/03 01:25:26;;;;;;;0.93;0.20;;;28.40;65.50;;;;;;5080983;28;20392;-73
2021/11/03 01:27:54;;;;;;;1.85;0.40;;;28.70;64.40;;;;;;5061495;28;20016;-73
2021/11/03 01:30:23;;;;;;;1.08;0.28;;;29.20;64.20;;;;;;5082852;28;20031;-73
2021/11/03 01:32:52;;;;;;;3.00;0.75;;;29.40;63.00;;;;;;5083369;28;20036;-73
2021/11/03 01:35:20;;;;;;;0.60;0.40;;;29.20;64.50;;;;;;5085287;28;20036;-72
2021/11/03 01:37:49;;;;;;;2.58;0.30;;;29.00;63.40;;;;;;5081961;28;20112;-75
2021/11/03 01:40:20;;;;;;;3.95;0.45;;;28.70;63.50;;;;;;5077932;28;20027;-73
2021/11/03 01:42:48;;;;;;;1.13;0.28;;;29.00;63.90;;;;;;5080267;28;20536;-73
2021/11/03 01:45:19;;;;;;;1.65;0.40;;;29.70;63.50;;;;;;5083064;28;20068;-76
2021/11/03 01:47:50;;;;;;;1.08;0.22;;;29.90;62.50;;;;;;5082910;28;20020;-72
2021/11/03 01:50:45;;;;;;;0.85;0.20;;;29.30;62.90;;;;;;5084010;28;20501;-77
2021/11/03 01:53:26;;;;;;;1.35;0.40;;;29.50;62.10;;;;;;5081935;28;20028;-78
2021/11/03 01:56:02;;;;;;;5.40;0.40;;;29.90;60.80;;;;;;5084045;28;20095;-77
2021/11/03 01:58:40;;;;;;;3.13;0.70;;;30.00;59.90;;;;;;5084477;28;20114;-77
2021/11/03 02:01:07;;;;;;;0.40;0.28;;;30.00;61.00;;;;;;5084795;28;20095;-77
2021/11/03 02:03:35;;;;;;;1.05;0.25;;;30.80;63.70;;;;;;5081771;28;20050;-75
2021/11/03 02:06:12;;;;;;;1.33;0.38;;;31.20;59.60;;;;;;5083218;28;20111;-77
2021/11/03 02:08:41;;;;;;;0.55;0.38;;;30.70;60.00;;;;;;5092214;28;20687;-77
2021/11/03 02:11:10;;;;;;;3.83;0.60;;;30.40;60.90;;;;;;5087753;28;20026;-77
2021/11/03 02:13:39;;;;;;;1.50;0.60;;;30.40;61.50;;;;;;5082913;28;20082;-74
2021/11/03 02:16:09;;;;;;;5.18;0.50;;;30.40;60.20;;;;;;5073808;28;20032;-76
2021/11/03 02:18:37;;;;;;;1.17;0.40;;;30.00;60.90;;;;;;5080379;28;20429;-76
2021/11/03 02:21:07;;;;;;;0.70;0.22;;;29.70;61.10;;;;;;5086654;28;20026;-76
2021/11/03 02:24:08;;;;;;;1.67;0.40;;;30.20;64.00;;;;;;5091993;28;20059;-76
2021/11/03 02:26:45;;;;;;;1.48;0.30;;;30.60;61.60;;;;;;5090913;28;20119;-76
2021/11/03 02:29:16;;;;;;;1.65;0.30;;;31.00;60.60;;;;;;5085948;28;20379;-77
2021/11/03 02:31:47;;;;;;;1.90;0.38;;;30.80;58.50;;;;;;5089654;28;20441;-76
2021/11/03 02:34:26;;;;;;;0.75;0.45;;;30.40;60.40;;;;;;5083223;28;20055;-75
2021/11/03 02:36:59;;;;;;;1.33;0.35;;;30.10;60.10;;;;;;5084435;28;20430;-74
2021/11/03 02:39:44;;;;;;;1.23;0.40;;;29.90;60.30;;;;;;5080276;28;20016;-76
2021/11/03 02:42:13;;;;;;;2.10;0.38;;;29.80;60.40;;;;;;5089626;28;20042;-73
2021/11/03 02:44:42;;;;;;;0.88;0.32;;;29.80;61.00;;;;;;5086463;28;20061;-76
2021/11/03 02:47:10;;;;;;;0.63;0.32;;;29.70;60.80;;;;;;5072005;28;20120;-76
2021/11/03 02:49:39;;;;;;;0.50;0.20;;;29.80;60.50;;;;;;5084764;28;20485;-76
2021/11/03 02:52:15;;;;;;;1.48;0.40;;;29.50;60.10;;;;;;5079160;28;20110;-76
2021/11/03 02:54:42;;;;;;;2.78;0.60;;;29.60;61.10;;;;;;5080323;28;20475;-77
2021/11/03 02:57:09;;;;;;;1.25;0.30;;;30.20;61.80;;;;;;5080714;28;20043;-78
2021/11/03 02:59:37;;;;;;;2.88;0.32;;;30.80;62.30;;;;;;5083676;28;20036;-69
2021/11/03 03:02:05;;;;;;;1.10;0.30;;;31.30;61.80;;;;;;5083269;28;20453;-77
2021/11/03 03:04:39;;;;;;;0.15;0.15;;;31.70;59.50;;;;;;5092264;28;20032;-74
2021/11/03 03:07:09;;;;;;;2.10;0.20;;;32.10;59.60;;;;;;5074593;28;20020;-75
2021/11/03 03:09:36;;;;;;;1.35;0.25;;;31.50;59.70;;;;;;5092252;28;20031;-76
2021/11/03 03:12:07;;;;;;;1.67;0.50;;;30.70;60.80;;;;;;5089446;28;20024;-76
2021/11/03 03:14:37;;;;;;;1.63;0.30;;;30.70;62.90;;;;;;5074689;28;20020;-75
2021/11/03 03:17:05;;;;;;;5.30;0.40;;;30.50;61.80;;;;;;5077787;28;20024;-77
2021/11/03 03:19:33;;;;;;;1.77;0.20;;;29.80;63.20;;;;;;5079746;28;20379;-75
2021/11/03 03:22:00;;;;;;;2.15;0.70;;;28.90;65.00;;;;;;5081005;28;20035;-76
2021/11/03 03:24:28;;;;;;;4.45;0.45;;;28.90;65.70;;;;;;5077471;28;20032;-76
2021/11/03 03:26:55;;;;;;;0.82;0.25;;;28.90;66.80;;;;;;5083384;28;20032;-78
2021/11/03 03:29:22;;;;;;;2.30;0.45;;;28.80;66.80;;;;;;5090832;28;20028;-77
2021/11/03 03:31:50;;;;;;;1.90;0.20;;;28.60;67.00;;;;;;5085988;28;20084;-76
2021/11/03 03:34:21;;;;;;;3.80;0.38;;;28.30;66.50;;;;;;5072559;28;20024;-76
2021/11/03 03:36:50;;;;;;;1.33;0.20;;;28.40;67.50;;;;;;5089992;28;20032;-76
2021/11/03 03:39:19;;;;;;;6.30;0.40;;;28.30;67.70;;;;;;5092317;28;20051;-76
2021/11/03 03:41:58;;;;;;;1.20;0.30;;;28.60;67.50;;;;;;5085648;28;20028;-79
2021/11/03 03:44:25;;;;;;;2.45;0.20;;;28.80;67.30;;;;;;5081012;28;20391;-76
2021/11/03 03:46:53;;;;;;;3.25;0.40;;;28.40;67.10;;;;;;5085570;28;20024;-78
2021/11/03 03:49:21;;;;;;;4.75;0.20;;;28.30;68.30;;;;;;5086816;28;20162;-76
2021/11/03 03:51:49;;;;;;;1.85;0.40;;;28.30;67.50;;;;;;5087908;28;20032;-75
2021/11/03 03:54:17;;;;;;;1.52;0.32;;;28.70;68.00;;;;;;5088284;28;20036;-75
2021/11/03 03:56:44;;;;;;;1.58;0.30;;;29.00;67.40;;;;;;5089557;28;20154;-76
2021/11/03 03:59:12;;;;;;;3.25;0.20;;;29.30;66.50;;;;;;5084669;28;20433;-75
2021/11/03 04:01:39;;;;;;;1.77;0.43;;;29.40;66.20;;;;;;5083358;28;20032;-77
2021/11/03 04:04:09;;;;;;;4.47;0.35;;;29.90;66.40;;;;;;5091762;28;20044;-74
2021/11/03 04:06:36;;;;;;;2.67;0.40;;;29.60;66.40;;;;;;5088327;28;20023;-73
2021/11/03 04:09:05;;;;;;;1.58;0.15;;;29.70;66.50;;;;;;5091826;28;20027;-75
2021/11/03 04:11:32;;;;;;;3.55;0.38;;;29.70;66.20;;;;;;5088246;28;20138;-77
2021/11/03 04:14:00;;;;;;;0.73;0.45;;;29.30;67.00;;;;;;5081691;28;20532;-74
2021/11/03 04:16:27;;;;;;;7.97;0.57;;;29.10;67.70;;;;;;5080098;28;20041;-76
2021/11/03 04:18:55;;;;;;;3.28;0.50;;;29.30;67.00;;;;;;5086864;28;20035;-77
2021/11/03 04:21:22;;;;;;;1.33;0.25;;;29.70;66.80;;;;;;5080286;28;20039;-79
2021/11/03 04:23:52;;;;;;;2.33;0.43;;;29.80;66.10;;;;;;5078173;28;20044;-76
2021/11/03 04:26:45;;;;;;;2.28;0.85;;;29.60;66.40;;;;;;5083715;28;20025;-78
2021/11/03 04:29:13;;;;;;;1.25;0.40;;;29.40;67.00;;;;;;5091749;28;20091;-76
2021/11/03 04:31:40;;;;;;;2.35;0.30;;;29.60;66.60;;;;;;5093592;28;20111;-75
2021/11/03 04:34:08;;;;;;;1.50;0.20;;;29.30;67.00;;;;;;5084180;28;20382;-78
2021/11/03 04:36:36;;;;;;;3.78;0.25;;;29.10;67.50;;;;;;5091807;28;20032;-78
2021/11/03 04:39:05;;;;;;;2.35;0.50;;;28.90;67.60;;;;;;5093081;28;20036;-77
2021/11/03 04:41:33;;;;;;;1.77;0.28;;;28.90;68.30;;;;;;5093969;28;20028;-76
2021/11/03 04:44:00;;;;;;;3.85;0.40;;;28.90;68.30;;;;;;5094320;28;20441;-78
2021/11/03 04:46:28;;;;;;;1.15;0.32;;;28.80;68.30;;;;;;5090901;28;20028;-73
2021/11/03 04:48:56;;;;;;;3.90;0.68;;;28.70;68.70;;;;;;5092885;28;20028;-76
2021/11/03 04:51:24;;;;;;;1.48;0.20;;;28.20;69.10;;;;;;5092022;28;20066;-74
2021/11/03 04:53:51;;;;;;;2.10;0.30;;;28.50;69.10;;;;;;5092784;28;20534;-74
2021/11/03 04:56:22;;;;;;;3.47;0.20;;;28.60;68.90;;;;;;5092203;28;20035;-74
2021/11/03 04:58:51;;;;;;;2.10;0.77;;;28.70;68.70;;;;;;5094811;28;20028;-75
2021/11/03 05:01:21;;;;;;;2.25;0.70;;;28.80;68.60;;;;;;5092755;28;20046;-72
2021/11/03 05:03:50;;;;;;;2.65;0.57;;;29.00;68.90;;;;;;5093900;28;20382;-76
2021/11/03 05:06:21;;;;;;;2.67;0.35;;;29.10;68.00;;;;;;5091483;28;20107;-73
2021/11/03 05:08:49;;;;;;;0.93;0.20;;;29.10;67.90;;;;;;5092930;28;20420;-74
2021/11/03 05:11:19;;;;;;;1.38;0.40;;;28.90;68.50;;;;;;5071504;28;20383;-75
2021/11/03 05:13:48;;;;;;;2.25;0.20;;;28.60;68.80;;;;;;5093062;28;20024;-75
2021/11/03 05:16:23;;;;;;;3.22;0.75;;;28.20;69.30;;;;;;5085587;28;20104;-76
2021/11/03 05:18:50;;;;;;;0.90;0.20;;;27.90;70.40;;;;;;5087673;28;20054;-75
2021/11/03 05:21:18;;;;;;;2.08;0.30;;;27.50;70.50;;;;;;5090715;28;20038;-74
2021/11/03 05:23:46;;;;;;;3.13;0.20;;;27.40;71.30;;;;;;5092898;28;20534;-74
2021/11/03 05:26:26;;;;;;;1.42;0.30;;;27.30;71.50;;;;;;5093022;28;20463;-76
2021/11/03 05:28:56;;;;;;;3.03;0.50;;;27.10;72.20;;;;;;5090480;28;20051;-75
2021/11/03 05:31:24;;;;;;;1.80;0.20;;;27.00;72.30;;;;;;5079869;28;20344;-77
2021/11/03 05:33:52;;;;;;;2.85;0.50;;;26.90;72.20;;;;;;5094988;28;20067;-77
2021/11/03 05:36:23;;;;;;;4.25;0.75;;;26.90;72.80;;;;;;5090262;28;20028;-73
2021/11/03 05:38:50;;;;;;;1.38;0.57;;;26.90;72.60;;;;;;5103636;28;20390;-76
2021/11/03 05:41:18;;;;;;;2.20;0.22;;;26.90;72.50;;;;;;5088659;28;20021;-76
2021/11/03 05:43:45;;;;;;;4.18;0.30;;;27.10;72.60;;;;;;5080930;28;20439;-78
2021/11/03 05:46:22;;;;;;;8.90;1.10;;;27.40;72.60;;;;;;5083412;28;20030;-78
2021/11/03 05:48:51;;;;;;;7.75;0.43;;;27.60;72.50;;;;;;5090515;28;20020;-77
2021/11/03 05:51:19;;;;;;;5.35;0.30;;;27.50;72.00;;;;;;5081126;28;20043;-74
2021/11/03 05:53:47;;;;;;;4.38;0.30;;;27.30;72.40;;;;;;5090436;28;20078;-73
2021/11/03 05:56:14;;;;;;;1.58;0.30;;;27.20;72.60;;;;;;5091583;28;20052;-75
2021/11/03 05:58:42;;;;;;;3.13;0.50;;;27.00;72.70;;;;;;5083956;28;20097;-75
2021/11/03 06:01:09;;;;;;;6.43;0.50;;;26.70;73.40;;;;;;5067249;28;20037;-74
2021/11/03 06:03:36;;;;;;;2.80;0.32;;;26.50;74.10;;;;;;5093504;28;20051;-73
2021/11/03 06:06:05;;;;;;;1.92;0.45;;;26.40;74.40;;;;;;5084021;28;20023;-73
2021/11/03 06:08:33;;;;;;;4.03;0.40;;;26.20;74.80;;;;;;5090651;28;20032;-75
2021/11/03 06:11:02;;;;;;;5.55;0.57;;;26.10;75.30;;;;;;5092048;28;20028;-73
2021/11/03 06:13:29;;;;;;;5.43;1.20;;;26.00;75.50;;;;;;5093162;28;20024;-76
2021/11/03 06:15:58;;;;;;;8.57;0.57;;;25.70;76.20;;;;;;5090844;28;20027;-74
2021/11/03 06:18:25;;;;;;;3.60;0.93;;;25.70;76.00;;;;;;5091177;28;20524;-74
2021/11/03 06:20:53;;;;;;;10.43;1.00;;;25.50;76.50;;;;;;5092337;28;20111;-75
2021/11/03 06:23:20;;;;;;;0.63;0.10;;;25.40;76.70;;;;;;5086982;28;20035;-75
2021/11/03 06:25:47;;;;;;;3.35;0.30;;;25.20;77.10;;;;;;5090605;28;20386;-75
2021/11/03 06:28:15;;;;;;;2.55;0.32;;;25.20;77.40;;;;;;5089634;28;20020;-74
2021/11/03 06:30:42;;;;;;;3.28;0.40;;;25.00;77.50;;;;;;5068022;28;20036;-75
2021/11/03 06:33:10;;;;;;;5.20;0.82;;;24.80;78.10;;;;;;5085029;28;20107;-74
2021/11/03 06:35:47;;;;;;;5.32;0.30;;;24.50;78.70;;;;;;5090142;28;20494;-76
2021/11/03 06:38:34;;;;;;;1.58;0.35;;;24.40;79.10;;;;;;5091618;28;20063;-75
2021/11/03 06:41:06;;;;;;;1.38;0.20;;;24.30;79.30;;;;;;5090132;28;20052;-76
2021/11/03 06:43:34;;;;;;;1.52;0.20;;;24.10;80.00;;;;;;5092255;28;20082;-77
2021/11/03 06:46:03;;;;;;;0.82;0.40;;;23.90;80.50;;;;;;5090956;28;20031;-75
2021/11/03 06:48:30;;;;;;;1.98;0.30;;;23.90;81.10;;;;;;5091105;28;20085;-76
2021/11/03 06:50:58;;;;;;;3.42;0.40;;;23.80;80.80;;;;;;5085058;28;20348;-77
2021/11/03 06:53:26;;;;;;;2.83;0.43;;;23.80;81.00;;;;;;5082594;28;20100;-75
2021/11/03 06:55:54;;;;;;;0.65;0.38;;;23.70;81.40;;;;;;5079111;28;20119;-74
2021/11/03 06:58:24;;;;;;;3.13;0.60;;;23.80;81.60;;;;;;5088543;28;20056;-74
2021/11/03 07:00:53;;;;;;;8.77;0.95;;;23.60;81.40;;;;;;5084553;28;20032;-74
2021/11/03 07:03:44;;;;;;;1.88;0.30;;;23.50;81.70;;;;;;5092127;28;20035;-74
2021/11/03 07:06:13;;;;;;;2.80;0.50;;;23.50;82.10;;;;;;5088984;28;20046;-73
2021/11/03 07:08:41;;;;;;;0.50;0.20;;;23.60;82.30;;;;;;5082136;28;20037;-74
2021/11/03 07:11:09;;;;;;;2.50;0.40;;;23.50;82.60;;;;;;5079346;28;20024;-73
2021/11/03 07:13:37;;;;;;;2.55;0.43;;;23.50;82.90;;;;;;5092066;28;20471;-73
2021/11/03 07:16:05;;;;;;;2.13;0.30;;;23.40;83.10;;;;;;5084590;28;20467;-75
2021/11/03 07:18:33;;;;;;;2.88;0.47;;;23.40;83.40;;;;;;5089256;28;20032;-76
2021/11/03 07:21:00;;;;;;;2.03;0.45;;;23.20;83.80;;;;;;5090583;28;20028;-76
2021/11/03 07:23:27;;;;;;;3.65;0.40;;;23.10;84.10;;;;;;5082568;28;20033;-75
2021/11/03 07:25:55;;;;;;;3.90;0.60;;;23.10;84.40;;;;;;5075869;28;20043;-72
2021/11/03 07:28:23;;;;;;;1.90;0.40;;;23.10;84.60;;;;;;5085263;28;20034;-73
2021/11/03 07:30:52;;;;;;;1.73;0.28;;;23.10;84.90;;;;;;5090461;28;20107;-75
2021/11/03 07:33:20;;;;;;;4.93;0.57;;;23.10;84.80;;;;;;5087031;28;20040;-74
2021/11/03 07:35:47;;;;;;;6.90;1.30;;;23.00;84.90;;;;;;5078668;28;20032;-73
2021/11/03 07:38:15;;;;;;;1.15;0.22;;;22.80;85.30;;;;;;5080931;28;20056;-74
2021/11/03 07:40:51;;;;;;;1.52;0.40;;;22.80;85.90;;;;;;5085028;28;20103;-75
2021/11/03 07:43:20;;;;;;;5.97;0.43;;;22.70;85.70;;;;;;5082253;28;20031;-76
2021/11/03 07:45:51;;;;;;;7.18;0.77;;;22.60;86.10;;;;;;5087414;28;20028;-74
2021/11/03 07:48:24;;;;;;;1.50;0.50;;;22.60;86.30;;;;;;5090667;28;20091;-74
2021/11/03 07:51:01;;;;;;;2.08;0.40;;;22.60;86.10;;;;;;5083209;28;20541;-72
2021/11/03 07:53:29;;;;;;;4.55;0.60;;;22.50;86.60;;;;;;5092041;28;20494;-74
2021/11/03 07:56:00;;;;;;;2.10;0.22;;;22.40;87.20;;;;;;5080756;28;20024;-74
2021/11/03 07:58:33;;;;;;;2.00;0.30;;;22.30;87.50;;;;;;5083787;28;20156;-73
2021/11/03 08:01:01;;;;;;;1.70;0.95;;;22.30;88.10;;;;;;5086191;28;20038;-75
2021/11/03 08:03:28;;;;;;;0.75;0.20;;;22.30;88.50;;;;;;5093598;28;20117;-76
2021/11/03 08:05:56;;;;;;;4.25;0.50;;;22.30;88.10;;;;;;5088674;28;20028;-76
2021/11/03 08:08:27;;;;;;;2.60;0.85;;;22.20;88.60;;;;;;5094017;28;20016;-75
2021/11/03 08:10:55;;;;;;;3.35;0.70;;;22.10;89.20;;;;;;5093220;28;20372;-76
2021/11/03 08:13:26;;;;;;;5.22;0.38;;;22.10;89.60;;;;;;5083255;28;20036;-77
2021/11/03 08:15:56;;;;;;;1.70;0.35;;;22.10;89.60;;;;;;5081246;28;20082;-74
2021/11/03 08:18:26;;;;;;;1.98;0.50;;;22.20;89.50;;;;;;5084828;28;20099;-76
2021/11/03 08:20:54;;;;;;;1.67;0.17;;;22.20;90.00;;;;;;5079924;28;20032;-75
2021/11/03 08:23:22;;;;;;;5.75;0.90;;;22.30;90.00;;;;;;5083150;28;20406;-72
2021/11/03 08:25:49;;;;;;;1.45;0.88;;;22.20;90.00;;;;;;5081279;28;20560;-75
2021/11/03 08:28:17;;;;;;;3.50;0.50;;;22.10;90.30;;;;;;5084623;28;20031;-72
2021/11/03 08:30:46;;;;;;;2.40;0.40;;;22.00;90.50;;;;;;5080763;28;20027;-80
2021/11/03 08:33:29;;;;;;;2.10;0.20;;;21.80;91.00;;;;;;5083567;28;20040;-74
2021/11/03 08:35:58;;;;;;;2.92;0.45;;;21.70;91.30;;;;;;5078530;28;20256;-74
2021/11/03 08:38:27;;;;;;;3.80;0.88;;;21.80;91.50;;;;;;5079595;28;20027;-73
2021/11/03 08:40:55;;;;;;;5.57;0.40;;;21.80;91.40;;;;;;5082401;28;20023;-74
2021/11/03 08:43:26;;;;;;;3.22;0.77;;;21.80;91.40;;;;;;5083671;28;20031;-74
2021/11/03 08:45:54;;;;;;;2.05;0.20;;;21.80;91.50;;;;;;5082766;28;20051;-74
2021/11/03 08:48:25;;;;;;;2.90;0.57;;;21.80;91.70;;;;;;5078421;28;20089;-74
2021/11/03 08:50:53;;;;;;;0.98;0.40;;;21.80;91.70;;;;;;5081641;28;20028;-75
2021/11/03 08:53:20;;;;;;;5.13;0.60;;;21.90;91.80;;;;;;5084602;28;20517;-76
2021/11/03 08:55:49;;;;;;;4.45;0.60;;;22.00;91.60;;;;;;5084894;28;20062;-74
2021/11/03 08:58:21;;;;;;;4.07;1.55;;;22.20;91.50;;;;;;5084978;28;20020;-74
2021/11/03 09:00:50;;;;;;;8.05;0.73;;;22.10;91.60;;;;;;5080378;28;20036;-76
2021/11/03 09:03:18;;;;;;;2.22;0.30;;;22.10;91.60;;;;;;5084843;28;20114;-74
2021/11/03 09:05:47;;;;;;;3.60;0.52;;;22.10;91.70;;;;;;5079410;28;20032;-74
2021/11/03 09:08:16;;;;;;;5.05;1.10;;;22.10;91.60;;;;;;5084162;28;20536;-72
2021/11/03 09:10:53;;;;;;;1.30;0.52;;;21.80;92.00;;;;;;5081546;28;20059;-74
2021/11/03 09:13:25;;;;;;;4.63;0.30;;;21.70;92.20;;;;;;5079175;28;20351;-73
2021/11/03 09:15:53;;;;;;;2.92;0.32;;;21.60;92.50;;;;;;5079764;28;20483;-73
2021/11/03 09:18:21;;;;;;;2.30;0.65;;;21.50;92.80;;;;;;5083072;28;20099;-72
2021/11/03 09:20:50;;;;;;;1.45;0.57;;;21.40;92.90;;;;;;5081616;28;20039;-75
2021/11/03 09:23:18;;;;;;;2.03;0.75;;;21.40;93.10;;;;;;5084710;28;20487;-75
2021/11/03 09:25:47;;;;;;;2.63;0.43;;;21.30;93.20;;;;;;5082965;28;20028;-75
2021/11/03 09:28:14;;;;;;;3.22;0.70;;;21.30;93.40;;;;;;5082269;28;20028;-72
2021/11/03 09:30:43;;;;;;;3.42;0.38;;;21.20;93.50;;;;;;5084347;28;20055;-74
2021/11/03 09:33:12;;;;;;;0.75;0.32;;;21.20;93.60;;;;;;5081586;28;20066;-74
2021/11/03 09:35:46;;;;;;;3.38;0.45;;;21.20;93.70;;;;;;5083444;28;20043;-74
2021/11/03 09:38:22;;;;;;;5.07;0.40;;;21.20;93.80;;;;;;5086769;28;20165;-76
2021/11/03 09:41:20;;;;;;;2.65;0.30;;;21.20;94.00;;;;;;5077546;28;20093;-73
2021/11/03 09:43:49;;;;;;;4.40;0.40;;;21.20;94.00;;;;;;5065716;28;20031;-74
2021/11/03 09:46:47;;;;;;;1.25;0.47;;;21.10;94.20;;;;;;5081687;28;20047;-72
2021/11/03 09:49:25;;;;;;;1.17;0.30;;;21.10;94.30;;;;;;5075744;28;20119;-71
2021/11/03 09:52:25;;;;;;;3.28;0.40;;;21.10;94.30;;;;;;5079503;28;20039;-71
2021/11/03 09:54:55;;;;;;;5.55;0.30;;;21.00;94.40;;;;;;5064985;28;20032;-75
2021/11/03 09:57:47;;;;;;;4.22;0.65;;;20.90;94.70;;;;;;5069510;28;20032;-72
2021/11/03 10:00:20;;;;;;;0.98;0.40;;;20.90;94.90;;;;;;5073373;28;20029;-71
2021/11/03 10:03:09;;;;;;;1.25;0.60;;;20.80;95.10;;;;;;5068301;28;20035;-72
2021/11/03 10:05:57;;;;;;;3.50;0.60;;;20.80;95.10;;;;;;5082201;28;20027;-75
2021/11/03 10:08:28;;;;;;;2.75;0.90;;;20.80;95.30;;;;;;5078161;28;20369;-76
2021/11/03 10:10:59;;;;;;;1.65;0.60;;;20.80;95.40;;;;;;5070052;28;20068;-73
2021/11/03 10:13:33;;;;;;;3.25;0.47;;;20.80;95.50;;;;;;5078342;28;20051;-76
2021/11/03 10:16:02;;;;;;;1.45;0.68;;;20.80;95.60;;;;;;5079196;28;20024;-75
2021/11/03 10:18:33;;;;;;;0.73;0.22;;;20.70;95.70;;;;;;5071899;28;20097;-77
2021/11/03 10:21:19;;;;;;;2.60;0.25;;;20.80;95.80;;;;;;5078067;28;20096;-73
2021/11/03 10:24:08;;;;;;;4.70;1.02;;;20.70;96.00;;;;;;5071900;28;20432;-77
2021/11/03 10:26:56;;;;;;;3.00;0.35;;;20.80;95.90;;;;;;5070818;28;20032;-74
2021/11/03 10:29:31;;;;;;;3.67;0.50;;;20.70;96.00;;;;;;5071531;28;20048;-73
2021/11/03 10:32:10;;;;;;;2.83;0.40;;;20.70;96.10;;;;;;5064526;28;20466;-73
2021/11/03 10:34:41;;;;;;;0.52;0.20;;;20.70;96.30;;;;;;5042816;28;20123;-73
2021/11/03 10:37:17;;;;;;;2.72;0.28;;;20.60;96.30;;;;;;5062727;28;20024;-77
2021/11/03 10:40:06;;;;;;;4.75;0.80;;;20.60;96.50;;;;;;5062341;28;20077;-79
2021/11/03 10:42:42;;;;;;;2.22;0.65;;;20.60;96.70;;;;;;5062217;28;22033;-75
2021/11/03 10:45:31;;;;;;;2.15;0.32;;;20.60;96.70;;;;;;5066193;28;20055;-77
2021/11/03 10:48:24;;;;;;;0.38;0.20;;;20.60;96.80;;;;;;5064716;28;20028;-75
2021/11/03 10:51:03;;;;;;;2.88;0.30;;;20.50;96.80;;;;;;5066001;28;20111;-75
2021/11/03 10:53:49;;;;;;;4.50;0.30;;;20.50;97.00;;;;;;5061528;28;20093;-78
2021/11/03 10:56:28;;;;;;;1.17;0.40;;;20.50;97.10;;;;;;5062952;28;20390;-74
2021/11/03 10:58:59;;;;;;;2.22;0.50;;;20.40;97.30;;;;;;5061792;28;20117;-72
2021/11/03 11:01:45;;;;;;;2.28;0.30;;;20.40;97.40;;;;;;5063780;28;20024;-72
2021/11/03 11:04:22;;;;;;;;;;;20.40;97.50;;;;;;5064630;28;20055;-74
2021/11/03 11:06:57;;;;;;;1.88;0.43;;;20.40;97.60;;;;;;5062038;28;19916;-75
2021/11/03 11:09:24;;;;;;;3.58;0.88;;;20.40;97.60;;;;;;5043948;28;20039;-73
2021/11/03 11:11:59;;;;;;;3.03;0.20;;;20.40;97.70;;;;;;5065619;28;20032;-76
2021/11/03 11:14:30;;;;;;;0.77;0.20;;;20.30;97.70;;;;;;5064268;28;20035;-74
2021/11/03 11:17:00;;;;;;;1.42;0.85;;;20.30;97.80;;;;;;5064276;28;20360;-73
2021/11/03 11:20:03;;;;;;;5.35;0.45;;;20.30;97.90;;;;;;5062545;28;20557;-76
2021/11/03 11:22:52;;;;;;;5.88;0.90;;;20.30;98.00;;;;;;5028098;28;20044;-73
2021/11/03 11:25:53;;;;;;;5.32;1.10;;;20.30;98.10;;;;;;5063674;28;20124;-76
2021/11/03 11:28:45;;;;;;;3.10;0.95;;;20.30;98.20;;;;;;5061171;28;20210;-75
2021/11/03 11:31:37;;;;;;;4.93;0.38;;;20.30;98.30;;;;;;5069017;28;20036;-77
2021/11/03 11:34:25;;;;;;;4.30;0.40;;;20.30;98.40;;;;;;5065744;28;20154;-75
2021/11/03 11:36:59;;;;;;;4.70;0.50;;;20.30;98.50;;;;;;5071265;28;20037;-76
2021/11/03 11:39:35;;;;;;;2.97;0.40;;;20.30;98.60;;;;;;5069191;28;20165;-74
2021/11/03 11:42:20;;;;;;;2.53;0.38;;;20.20;98.70;;;;;;5068789;28;20035;-75
2021/11/03 11:45:01;;;;;;;2.05;0.20;;;20.20;98.50;;;;;;5067993;28;20040;-76
2021/11/03 11:47:44;;;;;;;0.65;0.20;;;20.30;98.60;;;;;;5069857;28;20770;-77
2021/11/03 11:50:27;;;;;;;1.52;0.20;;;20.20;98.80;;;;;;5053420;28;20032;-75
2021/11/03 11:52:59;;;;;;;1.33;0.50;;;20.20;98.80;;;;;;5069199;28;20035;-76
2021/11/03 11:55:32;;;;;;;5.22;0.30;;;20.20;98.80;;;;;;5070190;28;20412;-74
2021/11/03 11:58:10;;;;;;;3.17;0.20;;;20.20;98.70;;;;;;5074417;28;20162;-76
2021/11/03 12:00:40;;;;;;;3.35;0.30;;;20.10;98.70;;;;;;5082467;28;20025;-75
2021/11/03 12:03:14;;;;;;;2.15;0.43;;;20.10;98.70;;;;;;5093221;28;20448;-75
2021/11/03 12:05:49;;;;;;;0.70;0.20;;;20.10;98.90;;;;;;5079866;28;20032;-76
2021/11/03 12:08:26;;;;;;;1.45;0.38;;;20.10;98.90;;;;;;5091740;28;20028;-76
2021/11/03 12:11:04;;;;;;;0.68;0.30;;;20.10;99.00;;;;;;5088532;28;20059;-76
2021/11/03 12:13:53;;;;;;;2.65;0.40;;;20.10;98.90;;;;;;5092401;28;20025;-75
2021/11/03 12:16:36;;;;;;;2.55;0.50;;;20.10;99.00;;;;;;5091955;28;20035;-76
2021/11/03 12:19:25;;;;;;;2.33;0.30;;;20.10;99.00;;;;;;5077834;28;20040;-76
2021/11/03 12:22:01;;;;;;;7.05;1.02;;;20.10;99.00;;;;;;5074466;28;20035;-76
2021/11/03 12:24:35;;;;;;;0.30;0.20;;;20.10;99.10;;;;;;5077170;28;20036;-76
2021/11/03 12:27:21;;;;;;;1.63;0.20;;;20.10;99.10;;;;;;5073105;28;20030;-76
2021/11/03 12:30:00;;;;;;;1.67;0.38;;;20.10;99.20;;;;;;5085490;28;20064;-78
2021/11/03 12:32:39;;;;;;;1.70;0.35;;;20.00;99.20;;;;;;5093201;28;20139;-76
2021/11/03 12:35:26;;;;;;;3.45;0.80;;;20.00;99.30;;;;;;5093933;28;20380;-76
2021/11/03 12:37:59;;;;;;;3.63;0.40;;;20.00;99.30;;;;;;5090061;28;20103;-77
2021/11/03 12:40:42;;;;;;;2.33;0.52;;;20.00;99.40;;;;;;5093201;28;20028;-72
2021/11/03 12:43:26;;;;;;;5.07;0.80;;;20.00;99.40;;;;;;5092752;28;20489;-75
2021/11/03 12:46:13;;;;;;;5.68;1.10;;;20.00;99.50;;;;;;5090002;28;20035;-77
2021/11/03 12:48:59;;;;;;;16.92;1.15;;;20.00;99.60;;;;;;5085701;28;20440;-78
2021/11/03 12:51:44;;;;;;;2.58;0.60;;;20.00;99.70;;;;;;5094001;28;20020;-79
2021/11/03 12:54:18;;;;;;;2.38;0.55;;;20.00;99.80;;;;;;5095115;28;20028;-75
2021/11/03 12:57:03;;;;;;;7.75;1.20;;;20.00;99.80;;;;;;5079570;28;20032;-78
2021/11/03 12:59:41;;;;;;;2.80;0.68;;;20.00;99.90;;;;;;5081709;28;20452;-80
2021/11/03 13:02:24;;;;;;;1.85;0.73;;;19.90;99.90;;;;;;5086446;28;20028;-79
2021/11/03 13:05:20;;;;;;;6.53;1.33;;;19.90;99.90;;;;;;5084622;28;20039;-76
2021/11/03 13:07:48;;;;;;;2.50;0.45;;;19.90;99.90;;;;;;5074384;28;20048;-77
2021/11/03 13:10:21;;;;;;;1.85;0.40;;;19.90;99.90;;;;;;5090856;28;20032;-76
2021/11/03 13:13:14;;;;;;;2.88;0.22;;;19.90;99.90;;;;;;5074657;28;20068;-76
2021/11/03 13:16:06;;;;;;;2.08;0.40;;;19.90;99.90;;;;;;5082536;28;20042;-76